Currently 45°F in Simi Valley, California, USA
45°F
54°F / 45°F
calm
0.00"
Tuesday, December 18, 2018 7:00 AM PST

Simi Valley, California Weather Summary
Last 36 Hours

Temperature Winds Hourly Humidity Dewpoint
Time Report Norm Report Norm Max Gusts Precip. Rpt. Norm Rpt. Norm Pressure
1Tue 07:00 AM  45.4°F  49°F  calm  5 mph  2 mph  0.00"  85%  64%  41°F  37°F  30.18"
3Tue 06:58 AM  45.4°F  49°F  calm  5 mph  none  ----  85%  64%  41°F  37°F  30.18"
Tue 06:00 AM  46.5°F  49°F  calm  5 mph  2 mph  0.00"  83%  64%  42°F  37°F  30.17"
Tue 05:00 AM  48.1°F  49°F  calm  5 mph  none  0.00"  81%  64%  42°F  37°F  30.15"
Tue 04:00 AM  50.3°F  49°F  calm  4 mph  5 mph  0.00"  79%  64%  44°F  37°F  30.16"
Tue 03:00 AM  53.3°F  49°F  calm  4 mph  10 mph  0.00"  76%  64%  46°F  37°F  30.15"
2Tue 02:32 AM  54.0°F  50°F  calm  4 mph  10 mph  ----  77%  64%  47°F  37°F  30.16"
Tue 02:00 AM  53.2°F  50°F  2 mph E  4 mph  7 mph  0.00"  81%  63%  47°F  37°F  30.16"
Tue 01:00 AM  51.3°F  50°F  calm  4 mph  7 mph  0.00"  90%  63%  48°F  38°F  30.16"
Tue 12:00 AM  52.5°F  50°F  calm  4 mph  2 mph  0.00"  91%  63%  50°F  38°F  30.17"
Mon 11:00 PM  55.0°F  51°F  calm  4 mph  6 mph  0.00"  91%  63%  52°F  38°F  30.17"
Mon 10:00 PM  55.7°F  52°F  calm  4 mph  4 mph  0.00"  92%  62%  53°F  39°F  30.17"
Mon 09:00 PM  56.3°F  52°F  calm  4 mph  4 mph  0.00"  91%  61%  54°F  39°F  30.15"
Mon 08:00 PM  56.7°F  53°F  calm  4 mph  9 mph  0.00"  91%  61%  54°F  39°F  30.15"
Mon 07:00 PM  57.0°F  54°F  3 mph W  4 mph  9 mph  0.00"  92%  60%  55°F  40°F  30.15"
Mon 06:00 PM  57.2°F  56°F  3 mph W  3 mph  8 mph  0.00"  91%  58%  55°F  41°F  30.13"
Mon 05:00 PM  58.3°F  58°F  4 mph NW  4 mph  8 mph  0.00"  87%  54%  54°F  41°F  30.11"
Mon 04:00 PM  59.5°F  61°F  6 mph NW  5 mph  10 mph  0.00"  84%  50%  55°F  41°F  30.10"
Mon 03:00 PM  60.6°F  62°F  4 mph W  5 mph  9 mph  0.00"  80%  47%  54°F  41°F  30.09"
Mon 02:00 PM  61.0°F  63°F  5 mph NW  6 mph  11 mph  0.00"  78%  45%  54°F  41°F  30.10"
Mon 01:00 PM  61.7°F  63°F  3 mph W  5 mph  6 mph  0.00"  73%  45%  53°F  41°F  30.11"
Mon 12:00 PM  60.1°F  62°F  3 mph W  6 mph  7 mph  0.00"  76%  47%  52°F  41°F  30.14"
Mon 11:00 AM  59.4°F  60°F  1 mph W  5 mph  3 mph  0.00"  79%  50%  53°F  41°F  30.17"
Mon 10:00 AM  56.7°F  58°F  calm  6 mph  5 mph  0.00"  85%  54%  52°F  41°F  30.20"
Mon 09:00 AM  55.2°F  55°F  calm  5 mph  none  0.00"  88%  59%  52°F  40°F  30.20"
Mon 08:00 AM  52.9°F  51°F  calm  5 mph  1 mph  0.00"  88%  62%  49°F  38°F  30.16"
Mon 07:00 AM  52.0°F  49°F  calm  5 mph  6 mph  0.00"  88%  63%  48°F  37°F  30.15"
Mon 06:00 AM  53.2°F  49°F  calm  5 mph  12 mph  0.00"  87%  64%  49°F  37°F  30.14"
Mon 05:00 AM  53.1°F  49°F  4 mph NW  5 mph  13 mph  0.00"  87%  63%  49°F  37°F  30.09"
Mon 04:00 AM  51.7°F  50°F  calm  4 mph  1 mph  0.00"  81%  64%  46°F  37°F  30.13"
Mon 03:00 AM  51.7°F  50°F  calm  4 mph  2 mph  0.00"  80%  64%  46°F  37°F  30.12"
Mon 02:00 AM  50.2°F  50°F  calm  5 mph  none  0.00"  79%  63%  44°F  38°F  30.13"
Mon 01:00 AM  51.3°F  50°F  calm  5 mph  none  0.00"  79%  63%  45°F  38°F  30.12"
Mon 12:00 AM  52.4°F  51°F  calm  5 mph  6 mph  0.00"  78%  63%  45°F  38°F  30.12"
Sun 11:00 PM  52.2°F  51°F  4 mph W  5 mph  5 mph  0.00"  75%  62%  44°F  38°F  30.13"
Sun 10:00 PM  52.2°F  52°F  calm  5 mph  3 mph  0.00"  76%  61%  44°F  39°F  30.12"
Sun 09:00 PM  52.7°F  53°F  calm  5 mph  none  0.00"  76%  60%  45°F  39°F  30.11"
Sun 08:00 PM  52.9°F  53°F  calm  4 mph  4 mph  0.00"  77%  60%  46°F  39°F  30.11"

  1. Current weather data. No green row appears if the current weather data is also the high or low for the current day.
  2. High temperature for the current day.
  3. Low temperature for the current day.

The Simi Valley, California weather pages are a service of WeatherCurrents.
Copyright ©Tue Dec 18 07:01:17 PST 2018  WeatherCurrents. All rights reserved. - Submit questions and comments - Privacy Policy

This page automatically refreshes every 10 minutes.